sensor_id;sensor_type;location;lat;lon;timestamp;P1;durP1;ratioP1;P2;durP2;ratioP2
37349;SDS011;23231;52.358;4.926;2022-08-16T00:02:28;22.25;;;17.92;;
37349;SDS011;23231;52.358;4.926;2022-08-16T00:07:28;22.15;;;18.08;;
37349;SDS011;23231;52.358;4.926;2022-08-16T00:12:29;23.90;;;19.88;;
37349;SDS011;23231;52.358;4.926;2022-08-16T00:17:30;27.70;;;21.83;;
37349;SDS011;23231;52.358;4.926;2022-08-16T00:22:30;26.58;;;22.20;;
37349;SDS011;23231;52.358;4.926;2022-08-16T00:27:31;26.75;;;21.88;;
37349;SDS011;23231;52.358;4.926;2022-08-16T00:32:31;26.50;;;20.88;;
37349;SDS011;23231;52.358;4.926;2022-08-16T00:37:32;26.35;;;20.13;;
37349;SDS011;23231;52.358;4.926;2022-08-16T00:42:32;27.70;;;21.67;;
37349;SDS011;23231;52.358;4.926;2022-08-16T00:47:33;31.65;;;24.88;;
37349;SDS011;23231;52.358;4.926;2022-08-16T00:52:35;27.75;;;23.83;;
37349;SDS011;23231;52.358;4.926;2022-08-16T00:57:36;28.27;;;22.40;;
37349;SDS011;23231;52.358;4.926;2022-08-16T01:02:37;31.33;;;23.10;;
37349;SDS011;23231;52.358;4.926;2022-08-16T01:07:39;32.08;;;25.13;;
37349;SDS011;23231;52.358;4.926;2022-08-16T01:12:40;33.95;;;25.27;;
37349;SDS011;23231;52.358;4.926;2022-08-16T01:17:41;33.10;;;25.35;;
37349;SDS011;23231;52.358;4.926;2022-08-16T01:22:56;34.58;;;25.98;;
37349;SDS011;23231;52.358;4.926;2022-08-16T01:28:03;34.28;;;25.85;;
37349;SDS011;23231;52.358;4.926;2022-08-16T01:33:06;32.55;;;26.15;;
37349;SDS011;23231;52.358;4.926;2022-08-16T01:38:18;29.95;;;23.50;;
37349;SDS011;23231;52.358;4.926;2022-08-16T01:43:30;37.58;;;26.92;;
37349;SDS011;23231;52.358;4.926;2022-08-16T01:48:31;35.45;;;28.33;;
37349;SDS011;23231;52.358;4.926;2022-08-16T01:53:32;33.78;;;27.65;;
37349;SDS011;23231;52.358;4.926;2022-08-16T01:58:32;33.65;;;27.70;;
37349;SDS011;23231;52.358;4.926;2022-08-16T02:03:32;36.25;;;29.38;;
37349;SDS011;23231;52.358;4.926;2022-08-16T02:08:33;36.53;;;28.05;;
37349;SDS011;23231;52.358;4.926;2022-08-16T02:13:35;36.20;;;28.38;;
37349;SDS011;23231;52.358;4.926;2022-08-16T02:18:36;38.38;;;30.15;;
37349;SDS011;23231;52.358;4.926;2022-08-16T02:23:37;43.10;;;31.55;;
37349;SDS011;23231;52.358;4.926;2022-08-16T02:28:38;40.45;;;31.10;;
37349;SDS011;23231;52.358;4.926;2022-08-16T02:33:38;42.90;;;31.98;;
37349;SDS011;23231;52.358;4.926;2022-08-16T02:38:39;37.13;;;31.23;;
37349;SDS011;23231;52.358;4.926;2022-08-16T02:43:40;39.35;;;30.45;;
37349;SDS011;23231;52.358;4.926;2022-08-16T02:48:40;37.42;;;29.17;;
37349;SDS011;23231;52.358;4.926;2022-08-16T02:53:42;39.65;;;31.70;;
37349;SDS011;23231;52.358;4.926;2022-08-16T02:58:44;44.25;;;33.45;;
37349;SDS011;23231;52.358;4.926;2022-08-16T03:03:46;44.22;;;33.33;;
37349;SDS011;23231;52.358;4.926;2022-08-16T03:08:47;49.28;;;35.47;;
37349;SDS011;23231;52.358;4.926;2022-08-16T03:13:49;47.15;;;35.42;;
37349;SDS011;23231;52.358;4.926;2022-08-16T03:18:52;47.53;;;34.88;;
37349;SDS011;23231;52.358;4.926;2022-08-16T03:23:52;50.70;;;36.35;;
37349;SDS011;23231;52.358;4.926;2022-08-16T03:28:53;55.40;;;39.60;;
37349;SDS011;23231;52.358;4.926;2022-08-16T03:33:53;48.50;;;35.88;;
37349;SDS011;23231;52.358;4.926;2022-08-16T03:38:54;50.35;;;36.50;;
37349;SDS011;23231;52.358;4.926;2022-08-16T03:43:54;50.08;;;37.10;;
37349;SDS011;23231;52.358;4.926;2022-08-16T03:48:55;57.15;;;38.85;;
37349;SDS011;23231;52.358;4.926;2022-08-16T03:53:56;55.28;;;39.95;;
37349;SDS011;23231;52.358;4.926;2022-08-16T03:58:57;53.80;;;38.85;;
37349;SDS011;23231;52.358;4.926;2022-08-16T04:03:57;51.45;;;36.55;;
37349;SDS011;23231;52.358;4.926;2022-08-16T04:08:58;49.47;;;36.42;;
37349;SDS011;23231;52.358;4.926;2022-08-16T04:13:58;51.83;;;38.08;;
37349;SDS011;23231;52.358;4.926;2022-08-16T04:18:59;52.33;;;38.25;;
37349;SDS011;23231;52.358;4.926;2022-08-16T04:23:59;54.80;;;39.30;;
37349;SDS011;23231;52.358;4.926;2022-08-16T04:29:00;54.35;;;38.20;;
37349;SDS011;23231;52.358;4.926;2022-08-16T04:34:01;54.42;;;38.47;;
37349;SDS011;23231;52.358;4.926;2022-08-16T04:39:01;56.00;;;40.83;;
37349;SDS011;23231;52.358;4.926;2022-08-16T04:44:02;55.22;;;39.95;;
37349;SDS011;23231;52.358;4.926;2022-08-16T04:49:02;54.90;;;39.33;;
37349;SDS011;23231;52.358;4.926;2022-08-16T04:54:03;56.70;;;38.85;;
37349;SDS011;23231;52.358;4.926;2022-08-16T04:59:03;57.13;;;41.22;;
37349;SDS011;23231;52.358;4.926;2022-08-16T05:04:04;53.72;;;37.50;;
37349;SDS011;23231;52.358;4.926;2022-08-16T05:09:04;55.38;;;40.92;;
37349;SDS011;23231;52.358;4.926;2022-08-16T05:14:05;52.35;;;38.15;;
37349;SDS011;23231;52.358;4.926;2022-08-16T05:19:05;54.75;;;40.33;;
37349;SDS011;23231;52.358;4.926;2022-08-16T05:24:06;55.92;;;40.03;;
37349;SDS011;23231;52.358;4.926;2022-08-16T05:29:07;57.50;;;42.22;;
37349;SDS011;23231;52.358;4.926;2022-08-16T05:34:07;55.28;;;39.83;;
37349;SDS011;23231;52.358;4.926;2022-08-16T05:39:08;60.33;;;41.22;;
37349;SDS011;23231;52.358;4.926;2022-08-16T05:44:08;55.58;;;39.50;;
37349;SDS011;23231;52.358;4.926;2022-08-16T05:49:09;52.13;;;39.90;;
37349;SDS011;23231;52.358;4.926;2022-08-16T05:54:15;51.47;;;40.35;;
37349;SDS011;23231;52.358;4.926;2022-08-16T05:59:17;54.72;;;39.10;;
37349;SDS011;23231;52.358;4.926;2022-08-16T06:04:18;53.42;;;40.90;;
37349;SDS011;23231;52.358;4.926;2022-08-16T06:09:20;52.55;;;39.58;;
37349;SDS011;23231;52.358;4.926;2022-08-16T06:14:21;53.17;;;39.97;;
37349;SDS011;23231;52.358;4.926;2022-08-16T06:19:21;52.33;;;39.88;;
37349;SDS011;23231;52.358;4.926;2022-08-16T06:24:21;50.25;;;38.33;;
37349;SDS011;23231;52.358;4.926;2022-08-16T06:29:22;51.92;;;38.55;;
37349;SDS011;23231;52.358;4.926;2022-08-16T06:34:22;52.53;;;36.42;;
37349;SDS011;23231;52.358;4.926;2022-08-16T06:39:23;48.75;;;36.90;;
37349;SDS011;23231;52.358;4.926;2022-08-16T06:44:23;50.08;;;37.00;;
37349;SDS011;23231;52.358;4.926;2022-08-16T06:49:23;52.85;;;39.47;;
37349;SDS011;23231;52.358;4.926;2022-08-16T06:54:24;47.95;;;37.78;;
37349;SDS011;23231;52.358;4.926;2022-08-16T06:59:24;50.95;;;38.70;;
37349;SDS011;23231;52.358;4.926;2022-08-16T07:04:25;49.40;;;38.30;;
37349;SDS011;23231;52.358;4.926;2022-08-16T07:09:25;48.60;;;36.83;;
37349;SDS011;23231;52.358;4.926;2022-08-16T07:14:26;50.72;;;38.35;;
37349;SDS011;23231;52.358;4.926;2022-08-16T07:19:27;50.83;;;36.80;;
37349;SDS011;23231;52.358;4.926;2022-08-16T07:24:31;44.92;;;34.67;;
37349;SDS011;23231;52.358;4.926;2022-08-16T07:29:31;43.60;;;34.88;;
37349;SDS011;23231;52.358;4.926;2022-08-16T07:34:32;46.70;;;35.47;;
37349;SDS011;23231;52.358;4.926;2022-08-16T07:39:32;45.80;;;33.22;;
37349;SDS011;23231;52.358;4.926;2022-08-16T07:44:33;42.60;;;32.85;;
37349;SDS011;23231;52.358;4.926;2022-08-16T07:49:33;44.67;;;32.03;;
37349;SDS011;23231;52.358;4.926;2022-08-16T07:54:33;46.67;;;33.05;;
37349;SDS011;23231;52.358;4.926;2022-08-16T07:59:34;41.80;;;30.67;;
37349;SDS011;23231;52.358;4.926;2022-08-16T08:04:35;38.53;;;30.95;;
37349;SDS011;23231;52.358;4.926;2022-08-16T08:09:35;43.15;;;30.35;;
37349;SDS011;23231;52.358;4.926;2022-08-16T08:14:35;47.20;;;34.22;;
37349;SDS011;23231;52.358;4.926;2022-08-16T08:19:36;39.22;;;28.92;;
37349;SDS011;23231;52.358;4.926;2022-08-16T08:24:37;45.60;;;29.95;;
37349;SDS011;23231;52.358;4.926;2022-08-16T08:29:38;38.38;;;30.13;;
37349;SDS011;23231;52.358;4.926;2022-08-16T08:34:39;41.35;;;28.77;;
37349;SDS011;23231;52.358;4.926;2022-08-16T08:39:39;38.60;;;29.25;;
37349;SDS011;23231;52.358;4.926;2022-08-16T08:44:40;39.58;;;28.60;;
37349;SDS011;23231;52.358;4.926;2022-08-16T08:49:40;35.85;;;27.42;;
37349;SDS011;23231;52.358;4.926;2022-08-16T08:54:41;38.30;;;28.52;;
37349;SDS011;23231;52.358;4.926;2022-08-16T08:59:41;36.92;;;28.65;;
37349;SDS011;23231;52.358;4.926;2022-08-16T09:04:42;33.15;;;26.98;;
37349;SDS011;23231;52.358;4.926;2022-08-16T09:09:43;35.50;;;28.40;;
37349;SDS011;23231;52.358;4.926;2022-08-16T09:14:44;39.80;;;30.02;;
37349;SDS011;23231;52.358;4.926;2022-08-16T09:19:44;31.25;;;25.52;;
37349;SDS011;23231;52.358;4.926;2022-08-16T09:24:44;36.15;;;26.88;;
37349;SDS011;23231;52.358;4.926;2022-08-16T09:29:45;31.65;;;27.17;;
37349;SDS011;23231;52.358;4.926;2022-08-16T09:34:45;52.45;;;28.45;;
37349;SDS011;23231;52.358;4.926;2022-08-16T09:39:46;33.42;;;26.08;;
37349;SDS011;23231;52.358;4.926;2022-08-16T09:44:46;32.22;;;25.25;;
37349;SDS011;23231;52.358;4.926;2022-08-16T09:49:46;30.50;;;24.95;;
37349;SDS011;23231;52.358;4.926;2022-08-16T09:54:47;30.00;;;24.25;;
37349;SDS011;23231;52.358;4.926;2022-08-16T09:59:48;31.73;;;26.30;;
37349;SDS011;23231;52.358;4.926;2022-08-16T10:04:48;35.03;;;27.30;;
37349;SDS011;23231;52.358;4.926;2022-08-16T10:09:49;28.50;;;25.15;;
37349;SDS011;23231;52.358;4.926;2022-08-16T10:14:49;34.08;;;26.58;;
37349;SDS011;23231;52.358;4.926;2022-08-16T10:19:50;30.65;;;26.48;;
37349;SDS011;23231;52.358;4.926;2022-08-16T10:24:54;30.77;;;23.70;;
37349;SDS011;23231;52.358;4.926;2022-08-16T10:29:54;26.23;;;22.55;;
37349;SDS011;23231;52.358;4.926;2022-08-16T10:34:54;20.20;;;16.23;;
37349;SDS011;23231;52.358;4.926;2022-08-16T10:39:55;24.17;;;18.92;;
37349;SDS011;23231;52.358;4.926;2022-08-16T10:44:56;18.58;;;16.23;;
37349;SDS011;23231;52.358;4.926;2022-08-16T10:49:56;20.23;;;16.42;;
37349;SDS011;23231;52.358;4.926;2022-08-16T10:54:59;24.20;;;17.55;;
37349;SDS011;23231;52.358;4.926;2022-08-16T10:59:59;26.85;;;19.88;;
37349;SDS011;23231;52.358;4.926;2022-08-16T11:05:02;28.02;;;20.88;;
37349;SDS011;23231;52.358;4.926;2022-08-16T11:10:03;24.70;;;19.77;;
37349;SDS011;23231;52.358;4.926;2022-08-16T11:15:04;29.35;;;24.13;;
37349;SDS011;23231;52.358;4.926;2022-08-16T11:20:05;26.50;;;19.73;;
37349;SDS011;23231;52.358;4.926;2022-08-16T11:25:13;25.40;;;21.00;;
37349;SDS011;23231;52.358;4.926;2022-08-16T11:30:15;17.95;;;15.38;;
37349;SDS011;23231;52.358;4.926;2022-08-16T11:35:17;21.52;;;16.10;;
37349;SDS011;23231;52.358;4.926;2022-08-16T11:40:21;21.42;;;17.73;;
37349;SDS011;23231;52.358;4.926;2022-08-16T11:45:22;15.82;;;13.27;;
37349;SDS011;23231;52.358;4.926;2022-08-16T11:50:22;18.13;;;15.90;;
37349;SDS011;23231;52.358;4.926;2022-08-16T11:55:23;19.70;;;14.50;;
37349;SDS011;23231;52.358;4.926;2022-08-16T12:00:23;22.33;;;18.83;;
37349;SDS011;23231;52.358;4.926;2022-08-16T12:05:24;19.95;;;17.42;;
37349;SDS011;23231;52.358;4.926;2022-08-16T12:10:26;16.20;;;12.63;;
37349;SDS011;23231;52.358;4.926;2022-08-16T12:15:26;18.13;;;13.90;;
37349;SDS011;23231;52.358;4.926;2022-08-16T12:20:29;15.10;;;11.40;;
37349;SDS011;23231;52.358;4.926;2022-08-16T12:25:31;21.55;;;15.45;;
37349;SDS011;23231;52.358;4.926;2022-08-16T12:30:34;15.57;;;10.80;;
37349;SDS011;23231;52.358;4.926;2022-08-16T12:35:38;15.02;;;11.65;;
37349;SDS011;23231;52.358;4.926;2022-08-16T12:40:39;16.77;;;11.50;;
37349;SDS011;23231;52.358;4.926;2022-08-16T12:45:43;11.95;;;9.90;;
37349;SDS011;23231;52.358;4.926;2022-08-16T12:50:46;12.07;;;9.70;;
37349;SDS011;23231;52.358;4.926;2022-08-16T12:55:47;19.80;;;13.90;;
37349;SDS011;23231;52.358;4.926;2022-08-16T13:00:48;21.13;;;15.73;;
37349;SDS011;23231;52.358;4.926;2022-08-16T13:05:48;17.65;;;12.85;;
37349;SDS011;23231;52.358;4.926;2022-08-16T13:10:50;15.88;;;13.35;;
37349;SDS011;23231;52.358;4.926;2022-08-16T13:15:56;19.10;;;13.18;;
37349;SDS011;23231;52.358;4.926;2022-08-16T13:20:58;19.23;;;13.35;;
37349;SDS011;23231;52.358;4.926;2022-08-16T13:25:58;17.10;;;13.25;;
37349;SDS011;23231;52.358;4.926;2022-08-16T13:30:59;14.75;;;12.45;;
37349;SDS011;23231;52.358;4.926;2022-08-16T13:36:00;16.85;;;13.30;;
37349;SDS011;23231;52.358;4.926;2022-08-16T13:41:00;14.00;;;10.40;;
37349;SDS011;23231;52.358;4.926;2022-08-16T13:46:01;18.30;;;13.30;;
37349;SDS011;23231;52.358;4.926;2022-08-16T13:51:02;13.40;;;11.48;;
37349;SDS011;23231;52.358;4.926;2022-08-16T13:56:02;16.40;;;11.98;;
37349;SDS011;23231;52.358;4.926;2022-08-16T14:01:03;18.48;;;10.25;;
37349;SDS011;23231;52.358;4.926;2022-08-16T14:06:04;15.18;;;10.30;;
37349;SDS011;23231;52.358;4.926;2022-08-16T14:11:05;12.93;;;9.48;;
37349;SDS011;23231;52.358;4.926;2022-08-16T14:16:06;14.25;;;9.98;;
37349;SDS011;23231;52.358;4.926;2022-08-16T14:21:06;11.90;;;9.18;;
37349;SDS011;23231;52.358;4.926;2022-08-16T14:26:07;14.50;;;10.30;;
37349;SDS011;23231;52.358;4.926;2022-08-16T14:31:07;17.73;;;13.27;;
37349;SDS011;23231;52.358;4.926;2022-08-16T14:36:08;18.40;;;12.75;;
37349;SDS011;23231;52.358;4.926;2022-08-16T14:41:09;12.48;;;9.23;;
37349;SDS011;23231;52.358;4.926;2022-08-16T14:46:09;18.30;;;14.32;;
37349;SDS011;23231;52.358;4.926;2022-08-16T14:51:09;15.07;;;10.82;;
37349;SDS011;23231;52.358;4.926;2022-08-16T14:56:10;14.05;;;11.43;;
37349;SDS011;23231;52.358;4.926;2022-08-16T15:01:10;13.55;;;12.05;;
37349;SDS011;23231;52.358;4.926;2022-08-16T15:06:11;17.50;;;13.00;;
37349;SDS011;23231;52.358;4.926;2022-08-16T15:11:12;21.17;;;16.30;;
37349;SDS011;23231;52.358;4.926;2022-08-16T15:16:12;17.23;;;13.13;;
37349;SDS011;23231;52.358;4.926;2022-08-16T15:21:13;16.15;;;12.40;;
37349;SDS011;23231;52.358;4.926;2022-08-16T15:26:13;17.55;;;12.93;;
37349;SDS011;23231;52.358;4.926;2022-08-16T15:31:14;19.45;;;15.15;;
37349;SDS011;23231;52.358;4.926;2022-08-16T15:36:16;17.10;;;12.95;;
37349;SDS011;23231;52.358;4.926;2022-08-16T15:46:37;22.33;;;11.35;;
37349;SDS011;23231;52.358;4.926;2022-08-16T15:51:40;16.13;;;12.75;;
37349;SDS011;23231;52.358;4.926;2022-08-16T15:56:41;15.73;;;12.90;;
37349;SDS011;23231;52.358;4.926;2022-08-16T16:01:41;16.10;;;11.20;;
37349;SDS011;23231;52.358;4.926;2022-08-16T16:06:42;13.00;;;9.82;;
37349;SDS011;23231;52.358;4.926;2022-08-16T16:11:47;12.48;;;11.18;;
37349;SDS011;23231;52.358;4.926;2022-08-16T16:16:48;17.63;;;10.65;;
37349;SDS011;23231;52.358;4.926;2022-08-16T16:21:49;17.42;;;10.60;;
37349;SDS011;23231;52.358;4.926;2022-08-16T16:26:51;12.20;;;9.10;;
37349;SDS011;23231;52.358;4.926;2022-08-16T16:31:51;14.95;;;10.43;;
37349;SDS011;23231;52.358;4.926;2022-08-16T16:36:52;15.45;;;8.85;;
37349;SDS011;23231;52.358;4.926;2022-08-16T16:41:52;13.05;;;7.63;;
37349;SDS011;23231;52.358;4.926;2022-08-16T16:46:53;9.85;;;7.38;;
37349;SDS011;23231;52.358;4.926;2022-08-16T16:51:53;14.70;;;10.18;;
37349;SDS011;23231;52.358;4.926;2022-08-16T16:56:55;11.40;;;7.85;;
37349;SDS011;23231;52.358;4.926;2022-08-16T17:01:57;12.65;;;7.65;;
37349;SDS011;23231;52.358;4.926;2022-08-16T17:06:59;15.52;;;8.05;;
37349;SDS011;23231;52.358;4.926;2022-08-16T17:12:02;7.55;;;6.20;;
37349;SDS011;23231;52.358;4.926;2022-08-16T17:17:03;9.07;;;6.80;;
37349;SDS011;23231;52.358;4.926;2022-08-16T17:27:09;10.40;;;7.47;;
37349;SDS011;23231;52.358;4.926;2022-08-16T17:32:10;12.35;;;8.32;;
37349;SDS011;23231;52.358;4.926;2022-08-16T17:37:12;9.60;;;7.63;;
37349;SDS011;23231;52.358;4.926;2022-08-16T17:42:13;11.77;;;7.78;;
37349;SDS011;23231;52.358;4.926;2022-08-16T17:47:16;9.25;;;7.60;;
37349;SDS011;23231;52.358;4.926;2022-08-16T17:52:17;10.40;;;7.68;;
37349;SDS011;23231;52.358;4.926;2022-08-16T17:57:17;13.48;;;8.18;;
37349;SDS011;23231;52.358;4.926;2022-08-16T18:02:21;13.65;;;9.35;;
37349;SDS011;23231;52.358;4.926;2022-08-16T18:07:22;11.97;;;8.10;;
37349;SDS011;23231;52.358;4.926;2022-08-16T18:12:22;10.48;;;8.07;;
37349;SDS011;23231;52.358;4.926;2022-08-16T18:17:23;10.85;;;8.32;;
37349;SDS011;23231;52.358;4.926;2022-08-16T18:22:24;15.40;;;8.18;;
37349;SDS011;23231;52.358;4.926;2022-08-16T18:27:25;11.15;;;7.97;;
37349;SDS011;23231;52.358;4.926;2022-08-16T18:32:27;10.07;;;7.82;;
37349;SDS011;23231;52.358;4.926;2022-08-16T18:37:27;8.57;;;7.05;;
37349;SDS011;23231;52.358;4.926;2022-08-16T18:42:28;10.32;;;7.53;;
37349;SDS011;23231;52.358;4.926;2022-08-16T18:47:28;11.10;;;7.35;;
37349;SDS011;23231;52.358;4.926;2022-08-16T18:52:29;14.18;;;10.18;;
37349;SDS011;23231;52.358;4.926;2022-08-16T18:57:31;12.43;;;9.93;;
37349;SDS011;23231;52.358;4.926;2022-08-16T19:02:31;13.55;;;11.30;;
37349;SDS011;23231;52.358;4.926;2022-08-16T19:07:32;16.80;;;11.68;;
37349;SDS011;23231;52.358;4.926;2022-08-16T19:12:33;13.52;;;10.82;;
37349;SDS011;23231;52.358;4.926;2022-08-16T19:17:35;15.05;;;13.43;;
37349;SDS011;23231;52.358;4.926;2022-08-16T19:22:35;16.27;;;10.80;;
37349;SDS011;23231;52.358;4.926;2022-08-16T19:27:36;21.60;;;15.80;;
37349;SDS011;23231;52.358;4.926;2022-08-16T19:32:37;19.83;;;17.23;;
37349;SDS011;23231;52.358;4.926;2022-08-16T19:37:38;22.45;;;19.55;;
37349;SDS011;23231;52.358;4.926;2022-08-16T19:42:39;29.13;;;21.80;;
37349;SDS011;23231;52.358;4.926;2022-08-16T19:47:48;24.77;;;21.08;;
37349;SDS011;23231;52.358;4.926;2022-08-16T19:52:49;25.90;;;20.15;;
37349;SDS011;23231;52.358;4.926;2022-08-16T19:57:51;28.90;;;24.15;;
37349;SDS011;23231;52.358;4.926;2022-08-16T20:02:52;36.10;;;28.27;;
37349;SDS011;23231;52.358;4.926;2022-08-16T20:07:53;29.70;;;24.42;;
37349;SDS011;23231;52.358;4.926;2022-08-16T20:12:55;28.50;;;23.85;;
37349;SDS011;23231;52.358;4.926;2022-08-16T20:17:56;33.50;;;26.33;;
37349;SDS011;23231;52.358;4.926;2022-08-16T20:22:57;27.77;;;22.33;;
37349;SDS011;23231;52.358;4.926;2022-08-16T20:27:57;34.05;;;28.63;;
37349;SDS011;23231;52.358;4.926;2022-08-16T20:32:58;35.30;;;28.88;;
37349;SDS011;23231;52.358;4.926;2022-08-16T20:37:59;35.42;;;28.85;;
37349;SDS011;23231;52.358;4.926;2022-08-16T20:43:10;33.83;;;27.95;;
37349;SDS011;23231;52.358;4.926;2022-08-16T20:48:12;29.05;;;25.05;;
37349;SDS011;23231;52.358;4.926;2022-08-16T20:53:13;32.53;;;28.73;;
37349;SDS011;23231;52.358;4.926;2022-08-16T20:58:13;35.33;;;27.67;;
37349;SDS011;23231;52.358;4.926;2022-08-16T21:03:13;37.40;;;32.20;;
37349;SDS011;23231;52.358;4.926;2022-08-16T21:08:14;42.15;;;32.92;;
37349;SDS011;23231;52.358;4.926;2022-08-16T21:13:14;36.67;;;30.98;;
37349;SDS011;23231;52.358;4.926;2022-08-16T21:18:16;34.95;;;28.55;;
37349;SDS011;23231;52.358;4.926;2022-08-16T21:23:16;33.65;;;25.95;;
37349;SDS011;23231;52.358;4.926;2022-08-16T21:28:17;32.78;;;28.17;;
37349;SDS011;23231;52.358;4.926;2022-08-16T21:33:17;36.60;;;29.00;;
37349;SDS011;23231;52.358;4.926;2022-08-16T21:38:18;38.55;;;30.27;;
37349;SDS011;23231;52.358;4.926;2022-08-16T21:43:20;35.58;;;29.50;;
37349;SDS011;23231;52.358;4.926;2022-08-16T21:48:22;36.75;;;29.63;;
37349;SDS011;23231;52.358;4.926;2022-08-16T21:53:24;41.88;;;31.88;;
37349;SDS011;23231;52.358;4.926;2022-08-16T21:58:28;35.70;;;30.50;;
37349;SDS011;23231;52.358;4.926;2022-08-16T22:03:30;32.67;;;26.75;;
37349;SDS011;23231;52.358;4.926;2022-08-16T22:08:34;36.97;;;30.33;;
37349;SDS011;23231;52.358;4.926;2022-08-16T22:13:35;40.25;;;31.90;;
37349;SDS011;23231;52.358;4.926;2022-08-16T22:18:35;34.05;;;27.38;;
37349;SDS011;23231;52.358;4.926;2022-08-16T22:23:36;38.33;;;30.35;;
37349;SDS011;23231;52.358;4.926;2022-08-16T22:28:36;38.80;;;31.48;;
37349;SDS011;23231;52.358;4.926;2022-08-16T22:33:37;40.38;;;32.08;;
37349;SDS011;23231;52.358;4.926;2022-08-16T22:38:37;37.05;;;30.42;;
37349;SDS011;23231;52.358;4.926;2022-08-16T22:43:37;41.75;;;33.05;;
37349;SDS011;23231;52.358;4.926;2022-08-16T22:48:38;37.00;;;30.38;;
37349;SDS011;23231;52.358;4.926;2022-08-16T22:53:38;37.55;;;30.23;;
37349;SDS011;23231;52.358;4.926;2022-08-16T22:58:39;39.15;;;32.72;;
37349;SDS011;23231;52.358;4.926;2022-08-16T23:03:40;35.13;;;27.95;;
37349;SDS011;23231;52.358;4.926;2022-08-16T23:08:40;37.95;;;31.63;;
37349;SDS011;23231;52.358;4.926;2022-08-16T23:13:42;41.67;;;33.40;;
37349;SDS011;23231;52.358;4.926;2022-08-16T23:18:42;34.45;;;29.42;;
37349;SDS011;23231;52.358;4.926;2022-08-16T23:23:42;28.90;;;25.38;;
37349;SDS011;23231;52.358;4.926;2022-08-16T23:28:45;30.92;;;24.52;;
37349;SDS011;23231;52.358;4.926;2022-08-16T23:33:45;32.70;;;25.85;;
37349;SDS011;23231;52.358;4.926;2022-08-16T23:38:46;29.50;;;26.20;;
37349;SDS011;23231;52.358;4.926;2022-08-16T23:43:46;29.98;;;26.20;;
37349;SDS011;23231;52.358;4.926;2022-08-16T23:48:46;30.77;;;25.73;;
37349;SDS011;23231;52.358;4.926;2022-08-16T23:53:47;28.95;;;24.25;;
37349;SDS011;23231;52.358;4.926;2022-08-16T23:58:49;27.60;;;24.45;;
